Time;durP1;ratioP1;P1;durP2;ratioP2;P2;SDS_P1;SDS_P2;PMS_P1;PMS_P2;Temp;Humidity;BMP_temperature;BMP_pressure;BME280_temperature;BME280_humidity;BME280_pressure;Samples;Min_cycle;Max_cycle;Signal;HPM_P1;HPM_P2
2022/11/16 00:01:29;;;;;;;14.80;7.40;;;;;;;9.19;93.95;149964.12;1716341;82;21156;-60
2022/11/16 00:03:58;;;;;;;9.98;6.33;;;;;;;9.14;94.11;149953.72;1730306;82;21036;-62
2022/11/16 00:06:25;;;;;;;11.35;7.50;;;;;;;9.11;94.48;149945.95;1730135;82;21135;-60
2022/11/16 00:11:45;;;;;;;12.37;6.70;;;;;;;9.00;95.00;149917.47;1703261;82;21236;-59
2022/11/16 00:14:12;;;;;;;11.93;7.20;;;;;;;8.98;95.30;149912.28;1729506;82;21129;-61
2022/11/16 00:16:39;;;;;;;11.55;6.87;;;;;;;8.97;95.48;149909.69;1728345;82;21555;-61
2022/11/16 00:19:06;;;;;;;12.98;7.78;;;;;;;8.94;95.56;149901.87;1724730;82;21100;-61
2022/11/16 00:21:33;;;;;;;11.15;7.20;;;;;;;8.95;95.65;149904.47;1714728;83;20988;-62
2022/11/16 00:24:00;;;;;;;13.05;7.58;;;;;;;8.93;95.64;149899.28;1719504;82;20960;-62
2022/11/16 00:26:27;;;;;;;14.15;7.65;;;;;;;8.92;95.66;149896.69;1719493;82;21469;-61
2022/11/16 00:28:57;;;;;;;15.68;7.75;;;;;;;8.88;95.69;149887.66;1716798;82;21071;-61
2022/11/16 00:31:25;;;;;;;12.58;7.62;;;;;;;8.85;95.69;149881.16;1718327;81;21074;-60
2022/11/16 00:33:52;;;;;;;14.55;7.72;;;;;;;8.83;95.70;149874.66;1730185;82;20991;-59
2022/11/16 00:36:19;;;;;;;14.45;7.90;;;;;;;8.81;95.69;149869.47;1729073;82;21079;-58
2022/11/16 00:38:46;;;;;;;13.28;7.85;;;;;;;8.77;95.68;149859.11;1726902;81;21485;-60
2022/11/16 00:41:14;;;;;;;11.12;7.65;;;;;;;8.72;95.76;149847.44;1726457;82;21086;-60
2022/11/16 00:43:41;;;;;;;13.10;7.50;;;;;;;8.69;95.85;149839.67;1726595;82;21666;-59
2022/11/16 00:46:08;;;;;;;15.40;8.03;;;;;;;8.66;95.93;149831.91;1728851;82;21055;-59
2022/11/16 00:48:36;;;;;;;12.98;8.00;;;;;;;8.63;96.07;149825.45;1707964;82;21528;-59
2022/11/16 00:51:09;;;;;;;15.53;8.55;;;;;;;8.63;96.17;149824.13;1704315;83;22138;-60
2022/11/16 00:53:39;;;;;;;11.55;7.40;;;;;;;8.64;96.21;149826.72;1698348;82;22349;-59
2022/11/16 00:56:07;;;;;;;13.45;8.55;;;;;;;8.65;96.32;149829.31;1716178;82;21246;-60
2022/11/16 00:58:38;;;;;;;12.30;7.33;;;;;;;8.66;96.38;149831.91;1716734;82;21026;-59
2022/11/16 01:01:08;;;;;;;11.15;7.15;;;;;;;8.69;96.37;149839.67;1711527;82;21103;-58
2022/11/16 01:03:35;;;;;;;13.35;7.08;;;;;;;8.72;96.28;149847.44;1702261;82;21533;-60
2022/11/16 01:06:04;;;;;;;12.93;7.67;;;;;;;8.75;96.14;149855.25;1706446;82;21038;-59
2022/11/16 01:08:31;;;;;;;11.22;7.17;;;;;;;8.78;96.05;149863.03;1704067;82;20999;-61
2022/11/16 01:12:07;;;;;;;10.53;6.42;;;;;;;8.79;95.89;149865.61;1722407;82;21039;-59
2022/11/16 01:13:29;;;;;;;11.28;6.78;;;;;;;8.82;95.82;149873.38;1710045;82;21524;-59
2022/11/16 01:15:57;;;;;;;15.28;6.80;;;;;;;8.86;95.74;149882.47;1722349;82;21332;-59
2022/11/16 01:18:24;;;;;;;11.43;6.72;;;;;;;8.88;95.41;149888.92;1721378;82;21039;-59
2022/11/16 01:20:53;;;;;;;11.33;7.03;;;;;;;8.89;95.28;149891.50;1713150;82;21090;-59
2022/11/16 01:23:20;;;;;;;11.63;7.10;;;;;;;8.91;95.26;149894.09;1707195;82;21512;-59
2022/11/16 01:26:00;;;;;;;12.00;6.75;;;;;;;8.94;95.17;149901.87;1701558;82;21074;-58
2022/11/16 01:28:28;;;;;;;11.97;6.87;;;;;;;8.97;94.93;149909.69;1701349;83;21364;-59
2022/11/16 01:30:57;;;;;;;13.40;7.87;;;;;;;8.95;94.80;149904.47;1707303;82;21572;-59
2022/11/16 01:33:24;;;;;;;13.55;7.60;;;;;;;8.95;94.76;149904.47;1707866;82;21556;-60
2022/11/16 01:35:52;;;;;;;15.48;7.12;;;;;;;8.96;94.80;149907.09;1706938;82;21110;-59
2022/11/16 01:38:19;;;;;;;12.30;6.72;;;;;;;8.97;94.85;149909.69;1689245;82;21127;-59
2022/11/16 01:40:47;;;;;;;12.60;7.67;;;;;;;9.00;94.71;149917.47;1729555;82;21580;-59
2022/11/16 01:43:21;;;;;;;12.95;7.37;;;;;;;8.96;94.70;149907.09;1729953;82;21019;-59
2022/11/16 01:45:49;;;;;;;11.43;6.93;;;;;;;8.96;94.84;149907.09;1729380;81;21106;-58
2022/11/16 01:48:24;;;;;;;11.48;7.03;;;;;;;8.95;94.92;149904.47;1707964;82;21047;-58
2022/11/16 01:50:51;;;;;;;14.20;7.35;;;;;;;8.93;94.96;149899.28;1730290;82;21083;-60
2022/11/16 01:53:18;;;;;;;12.58;6.75;;;;;;;8.92;95.08;149896.69;1703611;81;21241;-60
2022/11/16 01:55:47;;;;;;;12.93;7.67;;;;;;;8.91;95.21;149895.42;1726518;82;21111;-61
2022/11/16 01:58:20;;;;;;;14.45;7.97;;;;;;;8.90;95.31;149892.83;1726742;82;20947;-59
2022/11/16 02:00:48;;;;;;;12.18;7.25;;;;;;;8.91;95.46;149894.09;1714184;82;21544;-59
2022/11/16 02:03:39;;;;;;;11.63;6.78;;;;;;;8.86;95.64;149883.73;1717487;82;20992;-59
2022/11/16 02:06:30;;;;;;;14.68;7.10;;;;;;;8.85;95.82;149881.16;1715885;82;21268;-60
2022/11/16 02:12:46;;;;;;;12.43;7.83;;;;;;;8.84;96.08;149878.56;1718660;82;21090;-58
2022/11/16 02:15:40;;;;;;;13.38;7.87;;;;;;;8.81;96.29;149869.47;1719782;82;21098;-58
2022/11/16 02:18:39;;;;;;;10.55;6.47;;;;;;;8.77;96.41;149860.44;1725533;82;20991;-59
2022/11/16 02:21:26;;;;;;;14.40;7.70;;;;;;;8.74;96.59;149853.94;1722974;81;21301;-57
2022/11/16 02:24:34;;;;;;;13.32;7.03;;;;;;;8.72;96.74;149847.44;1726495;82;20987;-58
2022/11/16 02:27:24;;;;;;;;;;;;;;;8.73;96.87;149850.03;1726604;82;21123;-58
2022/11/16 02:29:54;;;;;;;12.95;7.00;;;;;;;8.72;96.96;149847.44;1725106;82;20205;-59
2022/11/16 02:32:49;;;;;;;12.88;8.40;;;;;;;8.70;97.07;149842.25;1702334;82;21058;-58
2022/11/16 02:35:30;;;;;;;13.98;7.72;;;;;;;8.67;97.16;149834.48;1728541;81;21936;-58
2022/11/16 02:38:08;;;;;;;11.93;7.37;;;;;;;8.69;97.33;149840.98;1720901;82;21023;-59
2022/11/16 02:40:36;;;;;;;13.25;7.78;;;;;;;8.68;97.23;149838.41;1723779;82;21047;-60
2022/11/16 02:43:07;;;;;;;13.72;7.53;;;;;;;8.69;97.29;149839.67;1721362;82;21043;-58
2022/11/16 02:45:39;;;;;;;13.30;6.83;;;;;;;8.69;97.26;149840.98;1723990;82;21141;-58
2022/11/16 02:48:11;;;;;;;13.25;7.40;;;;;;;8.69;97.20;149840.98;1728304;82;21817;-58
2022/11/16 02:50:41;;;;;;;;;;;;;;;8.71;97.21;149844.84;1724279;82;21548;-58
2022/11/16 02:53:09;;;;;;;12.78;7.15;;;;;;;8.72;97.21;149847.44;1706175;82;32396;-58
2022/11/16 02:55:38;;;;;;;11.38;7.05;;;;;;;8.70;97.03;149843.58;1704289;82;21529;-59
2022/11/16 02:58:08;;;;;;;15.45;7.85;;;;;;;8.69;97.16;149839.67;1678521;83;21329;-59
2022/11/16 03:00:46;;;;;;;13.35;7.40;;;;;;;8.70;97.26;149843.58;1704421;82;21087;-58
2022/11/16 03:03:23;;;;;;;12.95;7.70;;;;;;;8.72;97.25;149848.75;1715467;82;21452;-59
2022/11/16 03:05:57;;;;;;;12.13;6.90;;;;;;;8.74;97.22;149853.94;1735095;82;21109;-59
2022/11/16 03:08:29;;;;;;;13.53;7.85;;;;;;;8.73;97.13;149851.34;1730694;82;21090;-59
2022/11/16 03:13:58;;;;;;;12.45;7.30;;;;;;;8.69;97.27;149839.67;1721733;82;21158;-60
2022/11/16 03:16:37;;;;;;;13.62;7.47;;;;;;;8.68;97.37;149837.08;1725638;81;21079;-60
2022/11/16 03:19:11;;;;;;;13.68;7.40;;;;;;;8.69;97.47;149839.67;1722361;82;21071;-60
2022/11/16 03:21:47;;;;;;;;;;;;;;;8.71;97.49;149844.84;1720001;82;21079;-57
2022/11/16 03:24:14;;;;;;;20.43;8.53;;;;;;;8.72;97.49;149847.44;1681757;83;20182;-58
2022/11/16 03:27:07;;;;;;;15.50;8.38;;;;;;;8.69;97.52;149839.67;1721541;82;21734;-59
2022/11/16 03:30:13;;;;;;;15.20;8.25;;;;;;;8.67;97.62;149834.48;1719027;82;21032;-58
2022/11/16 03:33:10;;;;;;;15.40;7.42;;;;;;;8.67;97.80;149834.48;1722773;82;21106;-58
2022/11/16 03:36:04;;;;;;;12.98;7.70;;;;;;;8.70;97.85;149842.25;1726624;81;21060;-59
2022/11/16 03:38:33;;;;;;;16.02;7.90;;;;;;;8.70;97.70;149842.25;1707422;81;21076;-58
2022/11/16 03:41:06;;;;;;;13.25;7.65;;;;;;;8.67;97.83;149834.48;1726326;82;21445;-58
2022/11/16 03:43:33;;;;;;;17.30;7.45;;;;;;;8.67;98.00;149835.81;1726638;82;21424;-59
2022/11/16 03:46:05;;;;;;;15.35;8.98;;;;;;;8.67;98.05;149834.48;1723565;82;21023;-59
2022/11/16 03:48:38;;;;;;;13.13;7.47;;;;;;;8.67;98.07;149834.48;1725339;81;21656;-58
2022/11/16 03:51:08;;;;;;;14.85;7.72;;;;;;;8.68;98.06;149837.08;1725880;82;21456;-58
2022/11/16 03:53:35;;;;;;;16.60;7.97;;;;;;;8.67;98.01;149835.81;1723361;82;21195;-58
2022/11/16 03:56:03;;;;;;;13.72;7.37;;;;;;;8.69;98.01;149839.67;1706965;82;21349;-58
2022/11/16 03:58:31;;;;;;;13.48;7.28;;;;;;;8.70;98.01;149842.25;1704285;82;21015;-58
2022/11/16 04:00:58;;;;;;;20.68;9.03;;;;;;;8.71;97.94;149844.84;1706963;82;21067;-58
2022/11/16 04:03:28;;;;;;;16.62;8.33;;;;;;;8.71;97.81;149844.84;1705685;82;21515;-59
2022/11/16 04:25:40;;;;;;;15.78;8.03;;;;;;;8.60;98.77;149818.95;1700085;83;21099;-59
2022/11/16 04:28:12;;;;;;;20.20;8.85;;;;;;;8.60;98.81;149817.63;1704606;82;21054;-58
2022/11/16 04:38:59;;;;;;;;;;;;;;;8.62;98.95;149821.55;1732612;82;21054;-58
2022/11/16 04:44:12;;;;;;;15.63;7.47;;;;;;;8.61;98.89;149820.22;1699503;82;21136;-58
2022/11/16 04:49:26;;;;;;;14.35;7.83;;;;;;;8.60;98.91;149818.95;1700757;82;21035;-59
2022/11/16 04:51:54;;;;;;;18.42;7.40;;;;;;;8.60;98.90;149817.63;1705620;82;21067;-58
2022/11/16 04:54:22;;;;;;;14.23;7.65;;;;;;;8.60;98.95;149818.95;1705488;82;21165;-59
2022/11/16 04:56:49;;;;;;;13.98;7.83;;;;;;;8.62;99.06;149821.55;1706529;82;21047;-59
2022/11/16 04:59:16;;;;;;;14.55;7.83;;;;;;;8.60;99.12;149817.63;1707016;82;22139;-60
2022/11/16 05:04:29;;;;;;;14.83;8.13;;;;;;;8.59;99.31;149815.05;1700664;83;21038;-60
2022/11/16 05:06:56;;;;;;;14.43;7.42;;;;;;;8.59;99.44;149816.36;1702464;82;21059;-59
2022/11/16 05:09:23;;;;;;;13.10;7.35;;;;;;;8.63;99.48;149824.13;1705188;82;21583;-61
2022/11/16 05:11:51;;;;;;;12.23;7.35;;;;;;;8.65;99.22;149830.63;1714129;82;22129;-58
2022/11/16 05:14:18;;;;;;;11.48;7.10;;;;;;;8.65;99.00;149829.31;1703603;83;21055;-59
2022/11/16 05:16:46;;;;;;;12.15;7.25;;;;;;;8.65;98.79;149829.31;1721493;82;21067;-59
2022/11/16 05:21:58;;;;;;;;;;;;;;;8.65;98.63;149829.31;1709705;82;21485;-58
2022/11/16 05:24:34;;;;;;;12.13;6.35;;;;;;;8.67;98.47;149834.48;1714229;82;21145;-59
2022/11/16 05:27:05;;;;;;;12.50;6.75;;;;;;;8.68;98.40;149837.08;1717285;82;21402;-59
2022/11/16 05:29:34;;;;;;;15.03;8.18;;;;;;;8.69;98.31;149839.67;1728109;82;21576;-59
2022/11/16 05:32:02;;;;;;;14.03;7.62;;;;;;;8.69;98.22;149840.98;1711019;82;21099;-60
2022/11/16 05:34:39;;;;;;;14.75;7.28;;;;;;;8.70;98.17;149843.58;1705572;82;21055;-60
2022/11/16 05:37:09;;;;;;;14.47;7.55;;;;;;;8.73;98.11;149850.03;1722760;81;21481;-60
2022/11/16 05:39:37;;;;;;;15.65;8.28;;;;;;;8.76;97.96;149857.84;1720377;81;21099;-60
2022/11/16 05:42:05;;;;;;;13.53;7.78;;;;;;;8.78;97.69;149863.03;1725995;82;21478;-59
2022/11/16 05:44:32;;;;;;;15.28;8.35;;;;;;;8.77;97.56;149860.44;1720938;82;21050;-60
2022/11/16 05:46:59;;;;;;;15.10;8.03;;;;;;;8.75;97.48;149855.25;1726337;82;21092;-60
2022/11/16 05:49:26;;;;;;;15.15;8.00;;;;;;;8.73;97.48;149850.03;1723557;81;21963;-60
2022/11/16 05:51:53;;;;;;;14.65;7.87;;;;;;;8.74;97.50;149852.66;1723474;82;21036;-61
2022/11/16 05:54:23;;;;;;;15.72;8.05;;;;;;;8.73;97.40;149850.03;1717948;82;21524;-59
2022/11/16 05:56:50;;;;;;;17.07;8.38;;;;;;;8.71;97.38;149844.84;1701809;83;21596;-58
2022/11/16 05:59:20;;;;;;;13.78;7.90;;;;;;;8.68;97.47;149837.08;1701253;82;21129;-58
2022/11/16 06:01:48;;;;;;;14.93;7.80;;;;;;;8.64;97.67;149826.72;1703443;82;21927;-59
2022/11/16 06:04:15;;;;;;;19.20;8.58;;;;;;;8.64;97.79;149826.72;1702128;82;21050;-58
2022/11/16 06:06:43;;;;;;;13.78;7.30;;;;;;;8.63;97.83;149825.45;1701951;82;21099;-59
2022/11/16 06:09:11;;;;;;;15.68;8.10;;;;;;;8.63;97.89;149824.13;1705840;82;21559;-60
2022/11/16 06:11:40;;;;;;;15.53;7.80;;;;;;;8.62;97.97;149821.55;1733686;81;20963;-58
2022/11/16 06:14:08;;;;;;;15.78;7.92;;;;;;;8.63;98.06;149824.13;1701291;82;21922;-60
2022/11/16 06:16:35;;;;;;;15.20;7.65;;;;;;;8.64;98.11;149826.72;1703675;83;21051;-61
2022/11/16 06:19:04;;;;;;;18.00;7.92;;;;;;;8.68;98.20;149837.08;1704501;82;21114;-61
2022/11/16 06:21:33;;;;;;;16.50;8.18;;;;;;;8.74;98.22;149852.66;1714542;82;21517;-60
2022/11/16 06:24:02;;;;;;;16.50;8.20;;;;;;;8.77;98.11;149860.44;1725303;82;21054;-61
2022/11/16 06:26:30;;;;;;;13.45;7.22;;;;;;;8.79;98.07;149865.61;1725813;81;21231;-60
2022/11/16 06:28:58;;;;;;;13.75;7.47;;;;;;;8.80;98.17;149868.20;1729554;82;21460;-61
2022/11/16 06:31:25;;;;;;;13.28;7.37;;;;;;;8.85;98.29;149881.16;1729864;82;21087;-62
2022/11/16 06:33:55;;;;;;;13.75;7.08;;;;;;;8.92;98.36;149896.69;1729379;82;21054;-61
2022/11/16 06:36:23;;;;;;;13.38;6.97;;;;;;;8.97;98.19;149909.69;1701676;82;21070;-58
2022/11/16 06:38:50;;;;;;;14.60;7.70;;;;;;;9.04;98.28;149927.81;1706364;82;22384;-59
2022/11/16 06:41:18;;;;;;;15.83;7.78;;;;;;;9.14;97.95;149953.72;1675720;82;21122;-59
2022/11/16 06:43:47;;;;;;;12.98;6.97;;;;;;;9.23;97.91;149974.50;1707597;82;21093;-59
2022/11/16 06:46:33;;;;;;;12.85;7.20;;;;;;;9.33;97.54;150000.41;1707031;82;21062;-58
2022/11/16 06:48:49;;;;;;;10.53;6.05;;;;;;;9.44;97.17;150028.95;1707743;81;21015;-59
2022/11/16 06:51:17;;;;;;;13.58;6.60;;;;;;;9.54;96.84;150053.59;1706938;82;21600;-60
2022/11/16 06:53:46;;;;;;;12.50;6.47;;;;;;;9.64;96.58;150078.22;1701272;82;21122;-60
2022/11/16 06:56:13;;;;;;;11.20;6.42;;;;;;;9.74;96.05;150104.14;1708083;83;21120;-61
2022/11/16 06:58:42;;;;;;;12.58;5.83;;;;;;;9.84;95.57;150128.78;1693010;83;21059;-61
2022/11/16 07:01:11;;;;;;;11.93;6.42;;;;;;;9.95;95.08;150156.03;1711742;82;21079;-61
2022/11/16 07:03:39;;;;;;;12.05;6.10;;;;;;;10.03;94.53;150176.75;1702750;83;21232;-60
2022/11/16 07:06:08;;;;;;;11.33;6.50;;;;;;;10.12;94.20;150197.55;1707576;82;21575;-60
2022/11/16 07:08:36;;;;;;;13.00;6.78;;;;;;;10.19;93.11;150215.69;1677863;83;21168;-60
2022/11/16 07:11:09;;;;;;;9.85;5.95;;;;;;;10.23;92.46;150224.78;1713818;82;21139;-60
2022/11/16 07:13:37;;;;;;;14.35;6.50;;;;;;;10.27;92.11;150236.44;1710636;82;21289;-59
2022/11/16 07:16:07;;;;;;;14.58;6.47;;;;;;;10.31;91.73;150246.84;1702769;82;21305;-58
2022/11/16 07:18:40;;;;;;;10.68;6.53;;;;;;;10.38;91.48;150262.41;1698150;81;20986;-60
2022/11/16 07:21:09;;;;;;;9.03;5.80;;;;;;;10.44;91.32;150279.33;1724042;83;21016;-59
2022/11/16 07:23:39;;;;;;;9.93;5.53;;;;;;;10.50;90.84;150293.61;1678506;84;21032;-59
2022/11/16 07:26:08;;;;;;;9.70;5.90;;;;;;;10.51;90.95;150294.89;1702261;82;21610;-59
2022/11/16 07:28:37;;;;;;;10.38;5.83;;;;;;;10.56;90.48;150309.17;1690658;82;21897;-65
2022/11/16 07:31:06;;;;;;;10.60;6.08;;;;;;;10.56;90.30;150307.86;1690375;82;21085;-60
2022/11/16 07:33:34;;;;;;;11.97;6.25;;;;;;;10.58;90.29;150313.03;1695330;82;21138;-60
2022/11/16 07:36:12;;;;;;;10.18;6.35;;;;;;;10.64;90.13;150328.66;1707992;82;21087;-69
2022/11/16 07:38:39;;;;;;;12.25;6.33;;;;;;;10.66;89.66;150333.83;1678732;84;21134;-67
2022/11/16 07:41:12;;;;;;;11.60;6.37;;;;;;;10.65;89.71;150329.92;1689326;82;21129;-63
2022/11/16 07:43:40;;;;;;;9.78;5.97;;;;;;;10.65;89.62;150331.23;1683943;83;21071;-65
2022/11/16 07:46:20;;;;;;;10.20;6.47;;;;;;;10.67;89.70;150335.09;1715090;82;21034;-60
2022/11/16 07:48:50;;;;;;;10.63;6.00;;;;;;;10.66;89.87;150333.83;1704834;83;21152;-65
2022/11/16 07:51:17;;;;;;;11.33;6.80;;;;;;;10.71;90.06;150345.48;1709137;83;21025;-60
2022/11/16 07:53:45;;;;;;;11.93;6.53;;;;;;;10.74;89.96;150353.31;1704919;82;21076;-61
2022/11/16 07:56:12;;;;;;;13.43;6.65;;;;;;;10.76;89.94;150358.50;1704193;83;21504;-63
2022/11/16 07:58:40;;;;;;;13.25;7.45;;;;;;;10.80;90.12;150367.55;1710395;82;21023;-66
2022/11/16 08:01:10;;;;;;;13.03;7.55;;;;;;;10.87;89.88;150387.02;1708218;82;21113;-69
2022/11/16 08:03:39;;;;;;;12.63;7.28;;;;;;;10.95;89.60;150405.22;1675986;83;21057;-67
2022/11/16 08:06:11;;;;;;;17.27;7.45;;;;;;;11.03;89.43;150425.98;1681527;83;22121;-64
2022/11/16 08:08:39;;;;;;;14.18;7.42;;;;;;;11.10;89.13;150444.14;1705251;82;21086;-68
2022/11/16 08:11:09;;;;;;;12.98;7.03;;;;;;;11.15;88.78;150457.11;1704496;82;21498;-67
2022/11/16 08:13:44;;;;;;;12.18;7.00;;;;;;;11.16;88.67;150459.75;1701637;83;21033;-67
